Текущая Т° на юге МО

Полезные ссылки:
Метеоцентр.Азия - наш сайт с высокодетализированными прогнозами погоды по пунктам Pоссии и мира
Облегчённая версия Метеоклуба (для смартфонов)

Текущая Т° на юге МО

Сейчас в Метеоклубе:
Участников - 3 [ Sunspot, alexkspb, ded ]
Максимальное одновременное количество посетителей: 308 [2 Ноя 2013 22:42]
Гостей - 296 / Участников - 12

 - Начало - Ответить - Статистика - Pегистрация - Поиск -

МЕТЕОКЛУБ : независимое сообщество любителей метеорологии (Европа и Азия) : ФОРУМ О ПОГОДЕ И ПРИРОДЕ / Метеорологические приборы и методики наблюдений / Текущая Т° на юге МО
<< . 1 . 2 . 3 . 4 . 5 . 6 . 7 . 8 . 9 . 10 ... 53 . 54 . >>
Автор Сообщение
LESS
Участник

Приокский лесс на юге МО
# Дата: 12 Фев 2009 16:12


Какой ощутимый градиент Твозд между г.Кашира и г.Серпухов (между ними какие-то 40..50 км). Уже который срок в г.Серпухов на 2.5* С Твозд выше, чем в г.Кашира (причем, нужно ещё учесть и переход Твозд через ноль в г.Серпухов).

Откуда там столько тепла?! Может быть, эффект большого города?

Front
Участник

Москва
# Дата: 12 Фев 2009 16:37


LESS
Температура на юге подмосковного лесса поднялась до значений, превышающих точку зеро хотя бы на несколько сотых/десятых градуса? В Москве по срочным данным уже +1.

slava31
Участник

Монино
# Дата: 12 Фев 2009 17:00 - Поправил: slava31


-

LESS
Участник

Приокский лесс на юге МО
# Дата: 12 Фев 2009 17:03


Front

Да минус один у нас стабильно, какие там положительные значения... Может к вечеру поднимется.

LESS
Участник

Приокский лесс на юге МО
# Дата: 14 Фев 2009 11:06


Какие неожиданные и при этом малозаметные метеособытия происходят последние дни в нашем Поочье на юге МО.

Установившийся 8-го февраля незначительный градиент Твозд в 2..3* С между нашей Каширой и сосденим (40 км от нас) Серпуховым привёл к тому, что в Серпухове СП уменьшился вдвое за эти дни! Вот что значит "переход Твозд через ноль"! Какая орография! Невероятно!

LESS
Участник

Приокский лесс на юге МО
# Дата: 14 Фев 2009 11:30


Чтобы ежедневную ветку не зафлуживать, размещу свой вопрос здесь.

LESS

И ожидаются локальные грозы. А скорее всего будет на западе Подмосковья и западнее.
Melena83

Ставлю десять рублей на то, что февральской грозы в МО не состоится!


Вопрос: наблюдалась ли в МО гроза вчера или сегодня?

LESS
Участник

Приокский лесс на юге МО
# Дата: 29 Мар 2009 10:33


Как статично выглядят метеоданные в коде МЕТАР из "Домодедово" за последние часы: погода словно остановилась. Ветер замер на направлении 160* и скорости 4 м\с. И полный CAVOK.

UUDD 290500Z 15004MPS CAVOK M01/M06 Q1022 64010060 14010060 NOSIG=
UUDD 290430Z 16004MPS CAVOK M01/M06 Q1022 64010060 14010060 NOSIG=
UUDD 290400Z 16005MPS CAVOK M03/M07 Q1022 64010060 14010060 NOSIG=
UUDD 290330Z 15004MPS CAVOK M02/M07 Q1022 64010060 14010060 NOSIG=
UUDD 290300Z 17004MPS CAVOK M02/M06 Q1022 64010060 14010060 NOSIG=
UUDD 290230Z 16004MPS CAVOK M03/M07 Q1022 64010060 14010060 NOSIG=
UUDD 290200Z 16004MPS CAVOK M03/M07 Q1022 64010060 14010060 NOSIG=
UUDD 290130Z 16004MPS CAVOK M02/M07 Q1022 64010060 14010060 NOSIG=
UUDD 290100Z 16004MPS CAVOK M03/M07 Q1022 64010060 14010060 NOSIG=
UUDD 290030Z 16004MPS CAVOK M03/M07 Q1022 64010060 14010060 NOSIG=
UUDD 290000Z 16004MPS CAVOK M03/M07 Q1022 64010060 14010060 NOSIG=
UUDD 282330Z 16004MPS CAVOK M03/M07 Q1022 64010060 14010060 NOSIG=
UUDD 282300Z 17004MPS CAVOK M02/M07 Q1022 64010060 14010060 NOSIG=
UUDD 282230Z 16004MPS CAVOK M03/M07 Q1022 64010060 14010060 NOSIG=
UUDD 282200Z 16004MPS CAVOK M01/M06 Q1022 64010060 14010060 NOSIG=
UUDD 282130Z 16004MPS CAVOK M02/M06 Q1022 64010060 14010060 NOSIG=
UUDD 282100Z 15005MPS CAVOK M01/M06 Q1022 64010060 14010060 NOSIG=
UUDD 282030Z 16004MPS CAVOK M01/M06 Q1022 64010060 14010060 NOSIG=
UUDD 282000Z 16004MPS CAVOK M02/M06 Q1022 64010060 14010060 NOSIG=
UUDD 281930Z 16004MPS CAVOK M02/M07 Q1022 64010060 14010060 NOSIG=
UUDD 281900Z 16005MPS CAVOK M02/M07 Q1022 64010060 14010060 NOSIG=
UUDD 281830Z 16004MPS CAVOK M02/M07 Q1022 64010060 14010060 NOSIG=
UUDD 281800Z 15005MPS CAVOK M01/M07 Q1021 64010060 14010060 NOSIG=
UUDD 281730Z 16005MPS CAVOK M01/M07 Q1021 64010060 14010060 NOSIG=
UUDD 281700Z 16005MPS CAVOK M01/M06 Q1021 64010060 14010060 NOSIG=
UUDD 281630Z 15005MPS CAVOK 00/M06 Q1021 64010060 14010060 NOSIG=
UUDD 281600Z 15005MPS CAVOK 01/M06 Q1021 64010060 14010060 NOSIG=
UUDD 281530Z 15005MPS CAVOK 03/M07 Q1021 64010060 14010060 NOSIG=
UUDD 281500Z 15006MPS CAVOK 03/M07 Q1021 64010060 14010060 NOSIG=
UUDD 281430Z 16006MPS CAVOK 04/M07 Q1021 64010060 14010060 NOSIG=
UUDD 281400Z 16006MPS CAVOK 04/M07 Q1020 64010060 14010060 NOSIG=
UUDD 281330Z 16006MPS CAVOK 04/M07 Q1021 64010060 14010060 NOSIG=
UUDD 281300Z 16006MPS CAVOK 04/M07 Q1021 64010060 14010060 NOSIG=

LESS
Участник

Приокский лесс на юге МО
# Дата: 30 Мар 2009 10:39


Продолжаю публикацию необычно стабильных значений метеопараметров, практически не изменяющих своих значений на протяжении долгого времени. Что-то по своим характеристикам похожее на фён (отдалённо). Словно кто-то южнее нашей МО осавил этот самый "фен" включенным на несколько дней. Кстати, в этом режиме хоть и не наблюдается быстрого снеготаяния, зато наблюдается быстрое удаление влаги с почвы, образовавшейся от снеготаяния (высушивание южным сухим ветром).

UUDD 300600Z 16005MPS CAVOK 04/M00 Q1018 64010060 14010060 NOSIG=
UUDD 300530Z 16005MPS CAVOK 03/M00 Q1018 64010060 14010060 NOSIG=
UUDD 300500Z 16005MPS CAVOK 03/M00 Q1018 64010060 14010060 NOSIG=
UUDD 300430Z 16005MPS CAVOK 03/M00 Q1018 64010060 14010060 NOSIG=
UUDD 300400Z 17005MPS CAVOK 03/M00 Q1018 64010060 14010060 NOSIG=
UUDD 300330Z 16005MPS CAVOK 03/M00 Q1018 64010060 14010060 NOSIG=
UUDD 300300Z 17005MPS CAVOK 03/M00 Q1018 64010060 14010060 NOSIG=
UUDD 300230Z 17005MPS CAVOK 03/M01 Q1018 64010060 14010060 NOSIG=
UUDD 300200Z 16006MPS CAVOK 03/M01 Q1018 64010060 14010060 NOSIG=
UUDD 300130Z 17005MPS CAVOK 03/M01 Q1018 64010060 14010060 NOSIG=
UUDD 300100Z 17005MPS CAVOK 03/M01 Q1019 64010060 14010060 NOSIG=
UUDD 300030Z 16006MPS CAVOK 03/M01 Q1019 64010060 14010060 NOSIG=
UUDD 300000Z 17005MPS CAVOK 02/M01 Q1019 64010060 14010060 NOSIG=
UUDD 292330Z 17005MPS CAVOK 02/M01 Q1019 64010060 14010060 NOSIG=
UUDD 292300Z 16006MPS CAVOK 02/M02 Q1019 64010060 14010060 NOSIG=
UUDD 292230Z 16006MPS CAVOK 02/M02 Q1019 64010060 14010060 NOSIG=
UUDD 292200Z 16006MPS CAVOK 02/M02 Q1019 64010060 14010060 NOSIG=
UUDD 292130Z 16006MPS CAVOK 02/M02 Q1019 64010060 14010060 NOSIG=
UUDD 292100Z 16006MPS CAVOK 02/M02 Q1020 64010060 14010060 NOSIG=
UUDD 292030Z 16006MPS CAVOK 02/M02 Q1020 64010060 14010060 NOSIG=
UUDD 292000Z 16006MPS CAVOK 02/M03 Q1020 64010060 14010060 NOSIG=
UUDD 291930Z 16006MPS CAVOK 02/M03 Q1020 64010060 14010060 NOSIG=
UUDD 291900Z 15007MPS CAVOK 02/M03 Q1020 64010060 14010060 NOSIG=
UUDD 291830Z 16007MPS CAVOK 03/M03 Q1020 64010060 14010060 NOSIG=
UUDD 291800Z 16006MPS CAVOK 03/M03 Q1020 64010060 14010060 NOSIG=
UUDD 291730Z 15007MPS CAVOK 03/M02 Q1020 64010060 14010060 NOSIG=
UUDD 291700Z 17007MPS CAVOK 03/M02 Q1020 64010060 14010060 NOSIG=
UUDD 291630Z 15007MPS CAVOK 03/M02 Q1020 64010060 14010060 NOSIG=
UUDD 291600Z 15008MPS CAVOK 04/M02 Q1020 64010060 14010060 NOSIG=
UUDD 291530Z 16007MPS CAVOK 04/M02 Q1020 64010060 14010060 NOSIG=
UUDD 291500Z 16007MPS CAVOK 04/M02 Q1020 64010060 14010060 NOSIG=
UUDD 291430Z 16007MPS CAVOK 04/M01 Q1020 64010060 14010060 NOSIG=
UUDD 291400Z 16008MPS CAVOK 04/M01 Q1020 64010060 14010060 NOSIG=
UUDD 291330Z 16008MPS CAVOK 06/M02 Q1020 64010060 14010060 NOSIG=
UUDD 291300Z 15009MPS CAVOK 06/M02 Q1021 64010060 14010060 NOSIG=
UUDD 291230Z 15009MPS CAVOK 06/M02 Q1021 64010060 14010060 NOSIG=
UUDD 291200Z 15008MPS CAVOK 06/M02 Q1021 64010060 14010060 NOSIG=
UUDD 291130Z 16008MPS CAVOK 06/M02 Q1021 64010060 14010060 NOSIG=
UUDD 291100Z 16006MPS CAVOK 06/M02 Q1022 64010060 14010060 NOSIG=
UUDD 291030Z 16007MPS CAVOK 06/M02 Q1022 64010060 14010060 NOSIG=
UUDD 291000Z 16006MPS CAVOK 06/M02 Q1022 64010060 14010060 NOSIG=

LESS
Участник

Приокский лесс на юге МО
# Дата: 11 Jun 2009 12:21 - Поправил: LESS


METAR по "Домодедово" (за последние 5 часов)

UUDD 110800Z 17005MPS 140V210 CAVOK 28/19 Q1015 NOSIG=
UUDD 110730Z 14005MPS CAVOK 27/20 Q1015 NOSIG=
UUDD 110700Z 16004MPS 110V200 CAVOK 26/19 Q1015 NOSIG=
UUDD 110630Z 14003MPS 110V220 CAVOK 25/18 Q1016 NOSIG=
UUDD 110600Z VRB01MPS CAVOK 25/18 Q1016 NOSIG=
UUDD 110530Z 19002MPS 100V240 CAVOK 24/18 Q1016 NOSIG=
UUDD 110500Z 22003MPS 170V270 CAVOK 23/17 Q1016 NOSIG=
UUDD 110430Z 16004MPS CAVOK 22/17 Q1016 NOSIG=
UUDD 110400Z 18002MPS 150V220 CAVOK 21/17 Q1016 NOSIG=
UUDD 110330Z 19003MPS 160V250 CAVOK 20/17 Q1016 NOSIG=
UUDD 110300Z 16004MPS CAVOK 18/17 Q1016 NOSIG=
UUDD 110230Z 16004MPS 9999 FEW050CB BKN200 16/16 Q1016 TEMPO TSRA=

Невероятно стабильная "скорость" роста Твозд: градус в полчаса.

Т.е. начиная с 16* С Твозд выросла до 28* С (Тросы при этом тоже повысилась).

LESS
Участник

Приокский лесс на юге МО
# Дата: 11 Jun 2009 14:10


Люди! Рост Твозд в "Домодедово" с темпом полградуса в час продолжается! День войдёт в историю как день равномерного прогрева в диапазоне свшыше 10* С.

UUDD 110930Z 19006MPS CAVOK 31/18 Q1015 NOSIG=
UUDD 110900Z 19006MPS CAVOK 30/18 Q1015 WS RWY14L NOSIG=
UUDD 110830Z 18005MPS CAVOK 29/19 Q1015 NOSIG=
UUDD 110800Z 17005MPS 140V210 CAVOK 28/19 Q1015 NOSIG=
UUDD 110730Z 14005MPS CAVOK 27/20 Q1015 NOSIG=
UUDD 110700Z 16004MPS 110V200 CAVOK 26/19 Q1015 NOSIG=
UUDD 110630Z 14003MPS 110V220 CAVOK 25/18 Q1016 NOSIG=

ded
Участник

наро-фоМИНСК
# Дата: 24 Jun 2009 19:31


LESS
Сегодня на 4-00 метеонаблюдатель записал а Серпухове "Бурю"
http://www.rp5.ru/archive.php?wmo_id=27618

Из метеословаря:
- БУРЯ -
Очень сильный ветер, приводящий к сильному волнению на море и к разрушениям и опустошениям на суше. Б. может наблюдаться: при прохождении тропического или внетропического циклона; при прохождении смерча (тромба, торнадо); при грозе, местной или фронтальной. Скорость приземного ветра при буре по шкале Бофорта 10 баллов (25-28 м/с), а при сильной буре 11 баллов (29-32 м/с).

Были опустошения?

Konstantin
Участник

Москва, ЮЗАО
# Дата: 24 Jun 2009 22:30


ded
При ветре 1 м/с опустошения неизбежны.

LESS
Участник

Приокский лесс на юге МО
# Дата: 26 Jun 2009 13:40


ded

Были опустошения?

"Были демоны, но они самоликвидировались..." (с)

LESS
Участник

Приокский лесс на юге МО
# Дата: 26 Jun 2009 13:41


Konstantin

При ветре 1 м/с опустошения неизбежны.

Это смотря сколько наблюдатель принял...

LESS
Участник

Приокский лесс на юге МО
# Дата: 4 Jul 2009 11:52


У нас в прогнозе на сег.ночь Тмин +2* С и ниже (при Тросы 0* С и ниже).

Вот бы знать, во сколько точно это будет: поставил бы тазик с водой в холодильник, и вынес бы на улицу в (например, два часа) ночи. И проверил бы, покроется ли льдом...

ded
Участник

наро-фоМИНСК
# Дата: 4 Jul 2009 22:58


LESS
Что-то сильно сурово. На 22-00 по небу облачность гуляет, на всех метеостанциях области выше +10 http://meteo.rhm.ru/mo/mo.php
На утро вообще осадки намечаются. GFS-ник дает +4
http://wxweb.meteostar.com/sample/sample_C.shtml?t ext=UUWW
Авось прорвемся. Если где-то в области будут заморозки, то это, скорее всего, будет у Мелены и его обширной агентурной сети.

LESS
Участник

Приокский лесс на юге МО
# Дата: 5 Jul 2009 01:28


ded

Авось прорвемся. Если где-то в области будут заморозки, то это, скорее всего, будет у Мелены и его обширной агентурной сети.

Может быть...

ded
Участник

наро-фоМИНСК
# Дата: 5 Jul 2009 05:15


LESS
Как сказали бы акушеры - беременность рассосалась.

LESS
Участник

Приокский лесс на юге МО
# Дата: 5 Jul 2009 11:37


ded

Да уж.... А столько слов сказано было...

LESS
Участник

Приокский лесс на юге МО
# Дата: 9 Jul 2009 17:15


Массивный КДО расположился на данный момент на участке от ж\д станции "Жилёво" (Павелецкой дороги) и до г.Домодедово (или чуть южнее этого города).

LESS
Участник

Приокский лесс на юге МО
# Дата: 9 Jul 2009 17:38


Ой, а я и не заметил, как сайт "Расписание погоды" отреагировал на возобновление работы метеостанции в г.Кашира!

http://rp5.ru/archive.php?wmo_id=27627&lang=ru - идут данные, ура!

LESS
Участник

Приокский лесс на юге МО
# Дата: 13 Jul 2009 10:59


Вчера лидером по Тмакс в МО оказался г.Серпухов.

При Тмакс +29.2* С он оказался в 2.5-градусном "отрыве" от средней Тмакс по всей области ( вчера это значение составило +26.68* С).

LESS
Участник

Приокский лесс на юге МО
# Дата: 14 Jul 2009 14:50


В "Домодедово" Твозд уже +31* С !!! Вот это прогрев!

UUDD 141030Z 17007MPS 9999 SCT050CB BKN100 31/17 Q1012 NOSIG=
UUDD 141000Z 17006MPS 140V200 CAVOK 31/18 Q1012 NOSIG=
UUDD 140930Z 15007MPS CAVOK 30/19 Q1011 NOSIG=

Foxer
Участник

# Дата: 14 Jul 2009 15:57 - Поправил: Foxer


В "Домодедово" Твозд уже +31* С !!! Вот это прогрев!

LESS
По вчерашним прогнозам на сегодня прогнозировалась упомянутое Вами утром срезание дневного прогрева из-за облачного массива около ХФ. Но сегодня утром фронт немного "подзадержали" и "убрали" плотную облачность. Поэтому сейчас в Москве периодически выглядывает солнце, а вот на ЮВ отчётливо видны башни МК.

LESS
Участник

Приокский лесс на юге МО
# Дата: 14 Jul 2009 17:59


Foxer

упомянутое Вами утром срезание дневного прогрева из-за облачного массива около ХФ

Да уж, у нас тут срезало так срезало: календарно-суточный рекорд по Тмакс под угрозой "побития"...

LESS
Участник

Приокский лесс на юге МО
# Дата: 24 Jul 2009 09:42


Вчера по Тмакс теплее всего было в МО на юге области:

Коломна +24.5* С
Кашира +24.5* С

LESS
Участник

Приокский лесс на юге МО
# Дата: 27 Jul 2009 00:07


Перенесу часть свои сообщений сюда.

Итак, к нам приближается грозовой очаг, час-два тому назад хорошо "поколбасивший" Тулу.

Сейчас молниевые разряды 5...7 в минуту. Дождя пока нет.

LESS
Участник

Приокский лесс на юге МО
# Дата: 27 Jul 2009 00:17


Мда, к интенсивности то молниевых разрядов метеокс оказался и не чувствительным.

Сколько раз в минуту сейчас у нас тут было, не знаю, но за 10 секунд было точно 10 вспышек: строго, как стробоскоп!

Уже глаза больно всматриваться: то вдаль, то в комп.

Ну ничего, скоро всё это дело над нами повиснет - тогда никуда всматриваться не надо будет.

LESS
Участник

Приокский лесс на юге МО
# Дата: 27 Jul 2009 00:20


Ну вот и оно. Пришло. Швал. Гром. Начинается...

MrX
Участник

СЗФО
# Дата: 30 Jul 2009 12:28


LESS

/Оффтоп/

5-го августа буду в Москве. Если Вам не трудно, можно пропросить Вас записать для меня Ваши сильные грозы на диск (хоть на DVD всё что можно).
Пересечёмся где-нибудь.

<< . 1 . 2 . 3 . 4 . 5 . 6 . 7 . 8 . 9 . 10 ... 53 . 54 . >>
Ваш ответ

          Отменить *Что это?

 » Логин  » Пароль 
 
 


Поддержка: miniBB forum software © 2001-2024